Ash Springs, Nevada
Current Conditions -  °F | °C
As of 12:15 PM on Sunday 25 Jan 2015 (Local Time) from KSGU Reporting Station
Clear Clear  
Wind Chill: 57°   Ceiling: Unl
Heat Index: 57°   Visibility: 10mi
Dew Point: 28°   Wind: 0mph
Humidity: 33%   Direction: NA
Pressure: 30.29"   Gusts: NA
Location:  37.6°N, 114.8°W
Report Text: KSGU 252015Z AUTO 00000KT 10SM CLR 14/M02 A3029 RMK AO1
Loading
Personal Weather Stations






























Interactive Weather Map New forecast layout! Learn more

10-Day Weather Forecast

Advertisements
Track Severe Weather on mobile